Time;durP1;ratioP1;P1;durP2;ratioP2;P2;SDS_P1;SDS_P2;PMS_P1;PMS_P2;Temp;Humidity;BMP_temperature;BMP_pressure;BME280_temperature;BME280_humidity;BME280_pressure;Samples;Min_cycle;Max_cycle;Signal;HPM_P1;HPM_P2
2023/05/17 00:01:22;;;;;;;12.90;2.72;;;13.00;95.30;;;;;;5078818;28;20036;-77
2023/05/17 00:03:48;;;;;;;9.20;2.28;;;13.00;95.20;;;;;;5078858;28;20388;-77
2023/05/17 00:06:14;;;;;;;17.40;2.63;;;13.00;95.20;;;;;;5096809;28;20028;-77
2023/05/17 00:08:39;;;;;;;13.00;2.67;;;13.00;95.20;;;;;;5078388;28;20031;-77
2023/05/17 00:11:05;;;;;;;17.58;2.53;;;12.90;95.20;;;;;;5078716;28;20036;-77
2023/05/17 00:13:31;;;;;;;14.25;2.63;;;12.90;95.20;;;;;;5078625;28;20032;-77
2023/05/17 00:15:56;;;;;;;8.45;1.90;;;12.90;95.30;;;;;;5096321;28;20063;-77
2023/05/17 00:18:22;;;;;;;13.13;3.13;;;12.90;95.50;;;;;;5096159;28;20036;-77
2023/05/17 00:20:47;;;;;;;11.07;2.55;;;12.90;95.70;;;;;;5061695;28;20068;-77
2023/05/17 00:23:13;;;;;;;11.35;2.65;;;12.90;95.70;;;;;;5096518;28;20024;-76
2023/05/17 00:25:39;;;;;;;13.23;2.35;;;12.80;95.80;;;;;;5096056;28;20141;-78
2023/05/17 00:28:04;;;;;;;9.00;1.88;;;13.00;96.00;;;;;;5095847;28;20178;-77
2023/05/17 00:30:30;;;;;;;18.73;2.97;;;13.00;96.10;;;;;;5077900;28;20029;-78
2023/05/17 00:32:55;;;;;;;9.27;2.35;;;13.10;96.30;;;;;;5078255;28;20038;-78
2023/05/17 00:35:21;;;;;;;8.10;2.17;;;13.20;96.30;;;;;;5095971;28;20412;-78
2023/05/17 00:37:47;;;;;;;12.95;2.40;;;13.30;96.10;;;;;;5077898;28;20097;-77
2023/05/17 00:40:14;;;;;;;14.48;3.33;;;13.30;96.00;;;;;;5078197;28;20024;-77
2023/05/17 00:42:40;;;;;;;12.60;1.92;;;13.30;95.40;;;;;;5095961;28;20360;-78
2023/05/17 00:45:06;;;;;;;16.48;3.25;;;13.20;95.50;;;;;;5096042;28;20054;-78
2023/05/17 00:47:32;;;;;;;11.73;2.47;;;13.30;95.40;;;;;;5078168;28;20044;-78
2023/05/17 00:49:58;;;;;;;9.05;1.98;;;13.20;95.30;;;;;;5077978;28;20039;-77
2023/05/17 00:52:23;;;;;;;18.05;4.13;;;13.20;95.30;;;;;;5096264;28;20036;-78
2023/05/17 00:54:50;;;;;;;15.07;2.65;;;13.20;95.30;;;;;;5078282;28;20040;-78
2023/05/17 00:57:16;;;;;;;11.45;2.75;;;13.00;95.30;;;;;;5076961;28;20040;-78
2023/05/17 00:59:44;;;;;;;14.32;3.00;;;13.00;95.50;;;;;;5095315;28;20067;-78
2023/05/17 01:02:10;;;;;;;13.38;3.08;;;12.90;95.50;;;;;;5095706;28;20077;-78
2023/05/17 01:04:37;;;;;;;11.82;2.20;;;12.80;95.60;;;;;;5095749;28;20057;-78
2023/05/17 01:07:03;;;;;;;15.20;3.47;;;12.80;95.80;;;;;;5077377;28;20040;-78
2023/05/17 01:09:29;;;;;;;12.93;2.85;;;12.80;96.10;;;;;;5095722;28;20036;-78
2023/05/17 01:12:24;;;;;;;12.02;2.97;;;12.70;96.10;;;;;;5095601;28;20043;-78
2023/05/17 01:15:09;;;;;;;11.93;3.00;;;12.70;96.40;;;;;;5073957;28;20036;-78
2023/05/17 01:17:58;;;;;;;12.93;2.90;;;12.70;96.30;;;;;;5095162;28;20085;-78
2023/05/17 01:20:40;;;;;;;8.23;2.13;;;12.60;96.20;;;;;;5077095;28;20032;-78
2023/05/17 01:23:26;;;;;;;15.47;3.23;;;12.50;96.20;;;;;;5095482;28;20103;-78
2023/05/17 01:26:09;;;;;;;16.15;3.15;;;12.60;96.50;;;;;;5094709;28;20024;-78
2023/05/17 01:28:37;;;;;;;26.83;4.78;;;12.50;96.60;;;;;;5095321;28;20024;-78
2023/05/17 01:31:04;;;;;;;13.95;3.72;;;12.40;96.70;;;;;;5095054;28;20028;-78
2023/05/17 01:33:32;;;;;;;13.32;3.00;;;12.30;96.90;;;;;;5060325;28;20097;-78
2023/05/17 01:35:58;;;;;;;19.75;4.18;;;12.30;97.20;;;;;;5076906;28;20459;-78
2023/05/17 01:38:23;;;;;;;13.73;3.15;;;12.20;97.30;;;;;;5060495;28;20118;-78
2023/05/17 01:40:57;;;;;;;15.23;3.80;;;12.10;97.40;;;;;;5076726;28;20030;-78
2023/05/17 01:44:06;;;;;;;16.20;3.88;;;12.20;97.70;;;;;;5094930;28;20035;-77
2023/05/17 01:46:39;;;;;;;17.83;3.80;;;12.10;97.80;;;;;;4992989;28;20482;-77
2023/05/17 01:49:08;;;;;;;16.48;3.97;;;12.00;97.90;;;;;;5084120;28;20391;-77
2023/05/17 01:51:43;;;;;;;19.50;3.97;;;11.90;98.20;;;;;;5076351;28;20020;-77
2023/05/17 01:54:11;;;;;;;14.70;3.78;;;11.90;98.50;;;;;;5094603;28;20027;-77
2023/05/17 01:56:42;;;;;;;20.02;4.85;;;11.80;98.70;;;;;;5094127;28;20111;-77
2023/05/17 01:59:10;;;;;;;14.23;3.78;;;11.80;98.90;;;;;;5094228;28;20048;-77
2023/05/17 02:01:37;;;;;;;14.63;4.53;;;11.80;99.10;;;;;;5076903;28;20115;-78
2023/05/17 02:04:03;;;;;;;17.40;4.63;;;11.90;99.10;;;;;;5076835;28;20046;-78
2023/05/17 02:06:28;;;;;;;25.67;4.30;;;11.80;99.20;;;;;;5094277;28;20557;-78
2023/05/17 02:08:54;;;;;;;18.05;4.10;;;11.90;99.30;;;;;;5094254;28;20082;-78
2023/05/17 02:11:20;;;;;;;14.30;3.85;;;11.90;99.20;;;;;;5076234;28;20048;-78
2023/05/17 02:13:45;;;;;;;18.02;4.00;;;11.90;99.40;;;;;;5094364;28;20024;-79
2023/05/17 02:16:11;;;;;;;11.18;3.30;;;11.90;99.50;;;;;;5094090;28;20081;-79
2023/05/17 02:18:39;;;;;;;12.82;3.83;;;11.90;99.50;;;;;;5094335;28;20039;-78
2023/05/17 02:21:04;;;;;;;18.05;4.43;;;11.90;99.70;;;;;;5094313;28;20020;-78
2023/05/17 02:23:30;;;;;;;13.98;2.90;;;12.00;99.60;;;;;;5093984;28;20119;-78
2023/05/17 02:25:56;;;;;;;11.93;3.10;;;12.00;99.60;;;;;;5075647;28;20037;-78
2023/05/17 02:28:21;;;;;;;15.30;4.20;;;12.00;99.70;;;;;;5075995;28;20090;-78
2023/05/17 02:30:47;;;;;;;21.75;4.47;;;12.10;99.90;;;;;;5076081;28;20055;-77
2023/05/17 02:33:12;;;;;;;17.67;4.05;;;12.00;99.90;;;;;;5093795;28;20028;-77
2023/05/17 02:35:38;;;;;;;22.23;4.50;;;12.00;99.90;;;;;;5093742;28;20035;-78
2023/05/17 02:38:04;;;;;;;14.27;3.88;;;12.00;99.90;;;;;;5058851;28;20036;-78
2023/05/17 02:40:29;;;;;;;15.30;4.47;;;12.00;99.90;;;;;;5093988;28;20024;-77
2023/05/17 02:42:55;;;;;;;17.42;4.88;;;12.00;99.90;;;;;;5075695;28;20039;-77
2023/05/17 02:45:20;;;;;;;16.40;3.85;;;12.00;99.90;;;;;;5058986;28;20527;-77
2023/05/17 02:47:46;;;;;;;18.75;3.95;;;12.00;99.90;;;;;;5075704;28;20547;-78
2023/05/17 02:50:12;;;;;;;15.13;4.45;;;12.00;99.90;;;;;;5093819;28;20035;-77
2023/05/17 02:52:37;;;;;;;19.23;4.20;;;12.10;99.90;;;;;;5093088;28;20032;-77
2023/05/17 02:55:03;;;;;;;19.58;3.90;;;12.10;99.90;;;;;;5093439;28;20024;-77
2023/05/17 02:57:29;;;;;;;15.50;4.85;;;12.10;99.90;;;;;;5092883;28;20039;-76
2023/05/17 02:59:54;;;;;;;14.10;3.97;;;12.10;99.90;;;;;;5075487;28;20039;-77
2023/05/17 03:02:20;;;;;;;14.98;4.35;;;12.10;99.90;;;;;;5093460;28;20032;-77
2023/05/17 03:04:45;;;;;;;14.52;3.55;;;12.20;99.90;;;;;;5093679;28;20036;-77
2023/05/17 03:07:11;;;;;;;18.67;4.35;;;12.30;99.90;;;;;;5093704;28;20082;-77
2023/05/17 03:09:37;;;;;;;11.57;4.00;;;12.30;99.90;;;;;;5075293;28;20028;-77
2023/05/17 03:12:03;;;;;;;15.32;4.53;;;12.40;99.90;;;;;;5093662;28;20040;-77
2023/05/17 03:14:28;;;;;;;15.63;5.55;;;12.40;99.90;;;;;;5075542;28;20539;-76
2023/05/17 03:16:54;;;;;;;17.63;4.00;;;12.40;99.90;;;;;;5058969;28;20102;-77
2023/05/17 03:19:20;;;;;;;12.50;3.85;;;12.30;99.90;;;;;;5093638;28;20506;-77
2023/05/17 03:21:45;;;;;;;15.43;4.05;;;12.40;99.90;;;;;;5074921;28;20488;-77
2023/05/17 03:24:11;;;;;;;19.90;4.70;;;12.50;99.90;;;;;;5075309;28;20043;-77
2023/05/17 03:26:36;;;;;;;16.85;4.53;;;12.70;99.90;;;;;;5093077;28;20032;-77
2023/05/17 03:29:02;;;;;;;12.73;3.65;;;12.60;99.90;;;;;;5093110;28;20119;-77
2023/05/17 03:31:28;;;;;;;11.13;4.00;;;12.70;99.90;;;;;;5075308;28;20032;-77
2023/05/17 03:33:54;;;;;;;7.80;2.95;;;12.70;99.90;;;;;;5093499;28;20047;-77
2023/05/17 03:36:19;;;;;;;11.10;3.17;;;12.80;99.90;;;;;;5075327;28;20123;-77
2023/05/17 03:38:45;;;;;;;16.63;4.20;;;13.00;99.80;;;;;;5093434;28;20432;-77
2023/05/17 03:41:11;;;;;;;16.67;4.10;;;13.00;99.30;;;;;;5058413;28;20067;-77
2023/05/17 03:43:36;;;;;;;10.27;3.30;;;13.00;99.20;;;;;;5093096;28;20460;-78
2023/05/17 03:46:02;;;;;;;13.43;3.28;;;13.10;99.10;;;;;;5093269;28;20028;-77
2023/05/17 03:48:28;;;;;;;11.95;3.83;;;13.10;99.00;;;;;;5093367;28;20028;-77
2023/05/17 03:50:54;;;;;;;14.75;3.85;;;13.20;98.90;;;;;;5093211;28;20488;-77
2023/05/17 03:53:20;;;;;;;11.50;3.53;;;13.20;99.00;;;;;;5075111;28;20025;-77
2023/05/17 03:55:45;;;;;;;12.38;4.07;;;13.30;98.60;;;;;;5092823;28;20028;-78
2023/05/17 03:58:11;;;;;;;15.65;3.53;;;13.30;98.40;;;;;;5092804;28;20052;-78
2023/05/17 04:00:36;;;;;;;14.43;3.55;;;13.30;98.30;;;;;;5075523;28;20028;-77
2023/05/17 04:03:02;;;;;;;13.90;3.00;;;13.40;98.20;;;;;;5094368;28;20036;-77
2023/05/17 04:05:28;;;;;;;8.40;3.00;;;13.40;98.10;;;;;;5045242;28;20024;-77
2023/05/17 04:07:53;;;;;;;10.52;3.78;;;13.50;97.90;;;;;;5078988;28;20032;-78
2023/05/17 04:10:19;;;;;;;14.10;4.03;;;13.50;97.80;;;;;;5096872;28;20024;-78
2023/05/17 04:12:44;;;;;;;17.05;3.72;;;13.40;97.60;;;;;;5096527;28;20467;-78
2023/05/17 04:15:10;;;;;;;14.05;3.55;;;13.40;97.40;;;;;;5096473;28;20530;-78
2023/05/17 04:17:36;;;;;;;11.55;3.22;;;13.30;97.40;;;;;;5096358;28;20054;-78
2023/05/17 04:20:05;;;;;;;10.30;2.90;;;13.40;97.50;;;;;;5096780;28;20090;-77
2023/05/17 04:22:31;;;;;;;8.68;2.50;;;13.40;97.40;;;;;;5078640;28;20032;-77
2023/05/17 04:24:56;;;;;;;12.15;3.30;;;13.50;97.40;;;;;;5096284;28;20032;-77
2023/05/17 04:27:22;;;;;;;8.10;2.38;;;13.50;97.20;;;;;;5077811;28;20119;-78
2023/05/17 04:29:47;;;;;;;13.95;3.00;;;13.50;97.00;;;;;;5096195;28;20032;-77
2023/05/17 04:32:13;;;;;;;11.82;3.25;;;13.50;96.90;;;;;;5096294;28;20453;-77
2023/05/17 04:34:39;;;;;;;17.70;4.10;;;13.50;96.80;;;;;;5078133;28;20032;-77
2023/05/17 04:37:05;;;;;;;12.60;3.38;;;13.50;96.70;;;;;;5078185;28;20036;-78
2023/05/17 04:39:31;;;;;;;9.48;3.13;;;13.40;96.60;;;;;;5096098;28;20036;-77
2023/05/17 04:41:56;;;;;;;14.55;4.32;;;13.50;96.70;;;;;;5096029;28;20055;-77
2023/05/17 04:44:22;;;;;;;14.75;3.65;;;13.50;96.60;;;;;;5095805;28;20035;-77
2023/05/17 04:46:48;;;;;;;10.27;3.33;;;13.50;96.50;;;;;;5077735;28;20040;-77
2023/05/17 04:49:13;;;;;;;9.52;3.30;;;13.50;96.40;;;;;;5077885;28;20471;-77
2023/05/17 04:51:39;;;;;;;11.00;3.15;;;13.50;96.40;;;;;;5077885;28;20024;-77
2023/05/17 04:54:07;;;;;;;10.32;2.95;;;13.50;96.40;;;;;;5077578;28;20020;-78
2023/05/17 04:56:35;;;;;;;12.02;3.92;;;13.60;96.40;;;;;;5077251;28;20036;-78
2023/05/17 04:59:01;;;;;;;9.82;2.72;;;13.60;96.40;;;;;;5095395;28;20059;-78
2023/05/17 05:01:29;;;;;;;10.35;2.95;;;13.60;96.30;;;;;;5095777;28;20020;-78
2023/05/17 05:03:58;;;;;;;14.48;3.42;;;13.60;96.10;;;;;;5095645;28;20114;-77
2023/05/17 05:06:24;;;;;;;9.25;2.95;;;13.60;96.10;;;;;;5095539;28;20028;-77
2023/05/17 05:08:50;;;;;;;11.43;2.92;;;13.60;96.10;;;;;;5095022;28;20108;-77
2023/05/17 05:11:15;;;;;;;13.75;2.83;;;13.60;96.10;;;;;;5095433;28;20028;-77
2023/05/17 05:13:41;;;;;;;10.07;2.88;;;13.60;96.20;;;;;;5060553;28;20028;-78
2023/05/17 05:16:07;;;;;;;12.00;3.25;;;13.60;96.20;;;;;;5094821;28;20111;-78
2023/05/17 05:18:33;;;;;;;13.43;2.90;;;13.60;96.20;;;;;;5095151;28;20099;-78
2023/05/17 05:20:59;;;;;;;13.82;3.00;;;13.50;96.10;;;;;;5095030;28;20063;-78
2023/05/17 05:23:25;;;;;;;17.48;3.58;;;13.50;96.20;;;;;;5095319;28;20039;-77
2023/05/17 05:25:50;;;;;;;14.85;3.17;;;13.50;96.10;;;;;;5076286;28;20032;-78
2023/05/17 05:28:16;;;;;;;15.88;3.75;;;13.50;96.10;;;;;;5094891;28;20036;-78
2023/05/17 05:30:42;;;;;;;13.23;3.40;;;13.40;96.00;;;;;;5095092;28;20047;-78
2023/05/17 05:33:08;;;;;;;18.38;4.20;;;13.40;96.10;;;;;;5094853;28;20540;-78
2023/05/17 05:35:33;;;;;;;10.45;2.95;;;13.30;96.20;;;;;;5094709;28;20020;-78
2023/05/17 05:37:59;;;;;;;15.10;3.00;;;13.20;96.50;;;;;;5076623;28;20033;-77
2023/05/17 05:40:24;;;;;;;10.57;2.70;;;13.20;96.60;;;;;;5094968;28;20123;-77
2023/05/17 05:42:51;;;;;;;17.17;4.20;;;13.20;96.60;;;;;;5094767;28;20131;-78
2023/05/17 05:45:17;;;;;;;15.10;3.20;;;13.30;96.90;;;;;;5094347;28;20590;-77
2023/05/17 05:47:42;;;;;;;17.83;4.10;;;13.30;97.00;;;;;;5060042;28;20051;-76
2023/05/17 05:50:08;;;;;;;13.93;3.70;;;13.30;96.80;;;;;;5076622;28;20078;-78
2023/05/17 05:52:34;;;;;;;11.90;2.78;;;13.20;96.90;;;;;;5094523;28;20059;-78
2023/05/17 05:55:00;;;;;;;12.50;3.20;;;13.20;96.80;;;;;;5094535;28;20111;-77
2023/05/17 05:57:25;;;;;;;16.85;2.63;;;13.20;97.10;;;;;;5094071;28;20119;-76
2023/05/17 05:59:51;;;;;;;15.98;2.80;;;13.20;97.00;;;;;;5059483;28;20135;-76
2023/05/17 06:02:18;;;;;;;17.73;3.17;;;13.20;96.90;;;;;;5094603;28;20028;-77
2023/05/17 06:04:43;;;;;;;15.25;2.90;;;13.20;96.90;;;;;;5076099;28;20479;-77
2023/05/17 06:07:09;;;;;;;18.73;3.90;;;13.20;97.00;;;;;;5075987;28;20070;-77
2023/05/17 06:09:34;;;;;;;19.00;4.07;;;13.20;96.90;;;;;;5093920;28;20106;-75
2023/05/17 06:12:00;;;;;;;17.65;3.47;;;12.90;97.40;;;;;;5059483;28;20039;-77
2023/05/17 06:14:26;;;;;;;16.15;2.88;;;12.80;97.80;;;;;;5093661;28;20024;-77
2023/05/17 06:16:52;;;;;;;15.57;3.28;;;12.80;98.10;;;;;;5093953;28;20058;-78
2023/05/17 06:19:18;;;;;;;13.27;2.40;;;12.90;98.20;;;;;;5076077;28;20515;-78
2023/05/17 06:21:44;;;;;;;17.35;3.72;;;13.00;98.30;;;;;;5075462;28;20032;-78
2023/05/17 06:24:10;;;;;;;19.98;2.90;;;13.10;98.00;;;;;;5075822;28;20036;-78
2023/05/17 06:26:35;;;;;;;14.15;3.25;;;13.10;98.00;;;;;;5074535;28;20432;-78
2023/05/17 06:29:01;;;;;;;14.63;2.90;;;13.20;98.00;;;;;;5093521;28;20040;-78
2023/05/17 06:31:27;;;;;;;14.13;3.00;;;13.40;97.70;;;;;;5075769;28;20491;-78
2023/05/17 06:33:52;;;;;;;16.65;3.03;;;13.60;97.30;;;;;;5093624;28;20028;-77
2023/05/17 06:36:18;;;;;;;11.65;2.60;;;13.60;96.80;;;;;;5075533;28;20060;-78
2023/05/17 06:38:43;;;;;;;8.55;1.95;;;13.60;96.70;;;;;;5093946;28;20115;-78
2023/05/17 06:41:09;;;;;;;9.50;1.92;;;13.80;96.70;;;;;;5093575;28;20036;-78
2023/05/17 06:43:35;;;;;;;10.60;1.98;;;13.90;96.40;;;;;;5093863;28;20493;-78
2023/05/17 06:46:00;;;;;;;8.27;1.80;;;14.00;96.00;;;;;;5093670;28;20035;-78
2023/05/17 06:48:26;;;;;;;20.35;2.75;;;14.10;95.40;;;;;;5093585;28;20056;-78
2023/05/17 06:50:52;;;;;;;14.80;2.00;;;14.20;95.10;;;;;;5093572;28;20032;-78
2023/05/17 06:53:17;;;;;;;15.32;2.30;;;14.00;94.80;;;;;;5093802;28;20427;-77
2023/05/17 06:55:43;;;;;;;10.48;1.70;;;13.80;94.00;;;;;;5093730;28;20024;-78
2023/05/17 06:58:09;;;;;;;17.20;2.20;;;13.60;94.50;;;;;;5074555;28;20415;-77
2023/05/17 07:00:35;;;;;;;16.17;2.88;;;13.60;95.00;;;;;;5093870;28;20024;-77
2023/05/17 07:03:01;;;;;;;16.67;2.30;;;13.70;95.40;;;;;;5075665;28;20098;-77
2023/05/17 07:05:29;;;;;;;11.50;1.60;;;13.80;95.30;;;;;;5093589;28;20411;-77
2023/05/17 07:07:55;;;;;;;10.52;1.85;;;13.80;94.80;;;;;;5093191;28;20500;-77
2023/05/17 07:10:21;;;;;;;14.00;2.22;;;13.80;95.00;;;;;;5093477;28;20024;-78
2023/05/17 07:12:46;;;;;;;12.23;1.55;;;13.90;95.20;;;;;;5093003;28;20120;-78
2023/05/17 07:15:12;;;;;;;10.50;1.33;;;14.10;94.50;;;;;;5092179;28;20129;-76
2023/05/17 07:17:38;;;;;;;11.88;1.58;;;14.10;93.90;;;;;;5074869;28;20082;-77
2023/05/17 07:20:04;;;;;;;10.23;1.40;;;14.10;93.80;;;;;;5075224;28;20038;-77
2023/05/17 07:22:30;;;;;;;5.95;0.75;;;14.20;93.70;;;;;;5092958;28;20028;-77
2023/05/17 07:24:56;;;;;;;7.97;1.00;;;14.30;93.10;;;;;;5075113;28;20364;-77
2023/05/17 07:27:21;;;;;;;12.18;1.60;;;14.40;93.00;;;;;;5092808;28;20081;-77
2023/05/17 07:29:47;;;;;;;8.13;0.90;;;14.50;92.10;;;;;;5074849;28;20036;-78
2023/05/17 07:32:14;;;;;;;15.50;1.85;;;14.60;92.00;;;;;;5093313;28;20036;-77
2023/05/17 07:34:40;;;;;;;9.50;1.00;;;14.80;92.10;;;;;;5075260;28;20530;-77
2023/05/17 07:37:06;;;;;;;11.80;1.55;;;14.80;91.40;;;;;;5093084;28;20044;-78
2023/05/17 07:39:31;;;;;;;6.50;1.20;;;14.60;90.60;;;;;;5096556;28;20032;-77
2023/05/17 07:41:57;;;;;;;7.57;1.13;;;14.50;90.80;;;;;;5078606;28;20460;-77
2023/05/17 07:44:23;;;;;;;6.53;0.90;;;14.50;90.30;;;;;;5078940;28;20028;-78
2023/05/17 07:46:48;;;;;;;11.73;1.48;;;14.50;91.60;;;;;;5097120;28;20032;-77
2023/05/17 07:49:14;;;;;;;6.35;0.90;;;14.60;91.20;;;;;;5096946;28;20125;-77
2023/05/17 07:51:39;;;;;;;10.93;1.17;;;14.80;91.30;;;;;;5097212;28;20028;-78
2023/05/17 07:54:05;;;;;;;7.00;0.88;;;14.80;90.00;;;;;;5097102;28;20042;-77
2023/05/17 07:56:32;;;;;;;11.93;1.85;;;14.70;89.30;;;;;;5061786;28;20362;-78
2023/05/17 07:58:58;;;;;;;11.65;1.10;;;14.80;88.90;;;;;;5074993;28;20047;-77
2023/05/17 08:01:24;;;;;;;11.52;1.00;;;14.70;89.00;;;;;;5058730;28;20037;-77
2023/05/17 08:03:50;;;;;;;8.05;0.90;;;14.80;88.70;;;;;;5076717;28;20082;-78
2023/05/17 08:06:16;;;;;;;10.02;1.10;;;14.70;87.50;;;;;;5076488;28;20035;-77
2023/05/17 08:08:43;;;;;;;4.53;0.77;;;14.80;87.40;;;;;;5076023;28;20036;-76
2023/05/17 08:11:10;;;;;;;9.48;1.33;;;15.00;88.60;;;;;;5075528;28;20025;-77
2023/05/17 08:13:35;;;;;;;8.77;0.93;;;15.10;88.10;;;;;;5075462;28;20062;-78
2023/05/17 08:16:02;;;;;;;8.48;0.93;;;15.20;85.90;;;;;;5041891;28;20448;-77
2023/05/17 08:18:31;;;;;;;11.75;1.25;;;15.30;85.80;;;;;;5058207;28;20393;-77
2023/05/17 08:20:57;;;;;;;8.70;0.88;;;15.20;84.90;;;;;;5058356;28;20029;-77
2023/05/17 08:23:23;;;;;;;8.75;1.45;;;15.30;84.50;;;;;;5075925;28;20381;-77
2023/05/17 08:25:48;;;;;;;6.63;0.65;;;15.30;84.10;;;;;;5058053;28;20474;-78
2023/05/17 08:28:14;;;;;;;6.20;0.70;;;15.30;83.40;;;;;;5075499;28;20106;-78
2023/05/17 08:30:40;;;;;;;7.60;0.70;;;15.30;81.60;;;;;;5075835;28;20029;-78
2023/05/17 08:33:08;;;;;;;9.07;1.00;;;15.20;81.10;;;;;;5058177;28;20028;-78
2023/05/17 08:35:34;;;;;;;6.68;1.30;;;15.10;82.20;;;;;;5075911;28;20032;-78
2023/05/17 08:38:00;;;;;;;6.55;1.13;;;15.20;81.70;;;;;;5075673;28;20033;-78
2023/05/17 08:40:26;;;;;;;6.38;0.82;;;15.40;80.90;;;;;;5058087;28;20036;-77
2023/05/17 08:42:54;;;;;;;5.97;0.63;;;15.50;79.70;;;;;;5057765;28;20044;-77
2023/05/17 08:45:20;;;;;;;9.05;0.80;;;15.60;78.90;;;;;;5075820;28;20025;-77
2023/05/17 08:47:47;;;;;;;8.50;1.05;;;15.80;79.10;;;;;;5075603;28;20039;-78
2023/05/17 08:50:13;;;;;;;10.32;0.88;;;15.90;78.70;;;;;;5056770;28;20103;-78
2023/05/17 08:52:40;;;;;;;6.63;0.80;;;16.10;77.60;;;;;;5075729;28;20028;-78
2023/05/17 08:55:07;;;;;;;7.93;0.50;;;16.10;74.90;;;;;;5057611;28;20139;-77
2023/05/17 08:57:35;;;;;;;7.78;0.82;;;15.90;75.60;;;;;;5040611;28;20040;-77
2023/05/17 09:00:05;;;;;;;7.65;0.80;;;16.00;76.20;;;;;;5071279;28;20442;-78
2023/05/17 09:02:31;;;;;;;7.22;1.13;;;16.20;78.30;;;;;;5057482;28;20064;-77
2023/05/17 09:04:58;;;;;;;8.50;0.93;;;16.40;77.50;;;;;;5057613;28;20396;-77
2023/05/17 09:07:24;;;;;;;8.13;0.95;;;16.30;76.70;;;;;;5077900;28;20112;-77
2023/05/17 09:09:51;;;;;;;7.25;0.75;;;16.10;74.40;;;;;;5077273;28;20055;-77
2023/05/17 09:12:18;;;;;;;7.45;0.60;;;16.20;75.70;;;;;;5095527;28;20031;-77
2023/05/17 09:14:43;;;;;;;7.18;0.60;;;16.50;75.40;;;;;;5095612;28;20106;-78
2023/05/17 09:17:17;;;;;;;8.23;1.23;;;16.60;73.10;;;;;;5095038;28;20556;-78
2023/05/17 09:19:45;;;;;;;6.90;0.80;;;16.70;71.80;;;;;;5095365;28;20074;-78
2023/05/17 09:22:17;;;;;;;5.63;0.68;;;16.60;70.30;;;;;;5077091;28;20039;-78
2023/05/17 09:24:43;;;;;;;10.73;1.13;;;16.40;68.60;;;;;;5077151;28;20028;-78
2023/05/17 09:27:14;;;;;;;4.25;0.57;;;16.30;71.60;;;;;;5076209;28;20036;-78
2023/05/17 09:29:40;;;;;;;7.53;0.80;;;16.40;71.30;;;;;;5095157;28;20024;-78
2023/05/17 09:32:13;;;;;;;7.22;0.80;;;16.50;69.30;;;;;;5095421;28;20030;-77
2023/05/17 09:34:40;;;;;;;3.63;0.40;;;16.70;70.60;;;;;;5095131;28;20399;-79
2023/05/17 09:37:12;;;;;;;12.98;1.08;;;16.90;69.90;;;;;;5094987;28;20031;-78
2023/05/17 09:39:38;;;;;;;8.90;0.65;;;16.80;65.60;;;;;;5094458;28;20484;-78
2023/05/17 09:42:04;;;;;;;7.47;1.23;;;16.60;67.30;;;;;;5076672;28;20043;-78
2023/05/17 09:44:30;;;;;;;7.50;0.93;;;16.30;66.40;;;;;;5076939;28;20036;-78
2023/05/17 09:46:57;;;;;;;8.25;0.98;;;16.10;66.80;;;;;;5076796;28;20036;-79
2023/05/17 09:49:26;;;;;;;14.23;1.70;;;16.20;69.90;;;;;;5094594;28;20038;-78
2023/05/17 09:51:51;;;;;;;5.35;0.73;;;16.20;67.50;;;;;;5094153;28;20036;-78
2023/05/17 09:54:18;;;;;;;3.53;0.45;;;16.40;69.50;;;;;;5094796;28;20028;-78
2023/05/17 09:56:43;;;;;;;5.45;0.65;;;16.70;68.30;;;;;;5094358;28;20105;-78
2023/05/17 09:59:14;;;;;;;5.25;0.45;;;16.90;65.50;;;;;;5084039;28;20473;-77
2023/05/17 10:01:42;;;;;;;7.25;0.60;;;17.00;65.60;;;;;;5056103;28;20043;-79
2023/05/17 10:04:09;;;;;;;4.30;0.50;;;17.30;67.10;;;;;;5074186;28;20502;-77
2023/05/17 10:06:39;;;;;;;4.97;0.93;;;17.60;67.30;;;;;;5074174;28;20051;-78
2023/05/17 10:09:07;;;;;;;4.60;0.57;;;17.80;65.40;;;;;;5056415;28;20465;-78
2023/05/17 10:11:36;;;;;;;7.95;0.73;;;17.70;65.20;;;;;;5074148;28;20040;-78
2023/05/17 10:14:17;;;;;;;6.03;0.68;;;17.80;65.30;;;;;;5073723;28;20036;-79
2023/05/17 10:16:44;;;;;;;4.22;0.50;;;17.70;63.10;;;;;;5074071;28;20032;-79
2023/05/17 10:19:13;;;;;;;4.28;0.60;;;17.80;63.20;;;;;;5073687;28;20024;-79
2023/05/17 10:21:41;;;;;;;5.10;0.45;;;17.70;63.50;;;;;;5056076;28;20090;-78
2023/05/17 10:24:08;;;;;;;8.40;0.98;;;17.80;62.60;;;;;;5055914;28;20437;-79
2023/05/17 10:26:35;;;;;;;5.65;0.50;;;18.00;63.10;;;;;;5073023;28;20028;-79
2023/05/17 10:29:02;;;;;;;4.25;0.63;;;18.10;63.10;;;;;;5055670;28;20050;-79
2023/05/17 10:31:32;;;;;;;6.10;0.73;;;18.20;62.50;;;;;;5073549;28;20020;-79
2023/05/17 10:34:00;;;;;;;7.57;0.70;;;18.30;60.00;;;;;;5055805;28;20032;-78
2023/05/17 10:36:26;;;;;;;5.78;0.50;;;18.40;60.80;;;;;;5073663;28;20051;-78
2023/05/17 10:38:52;;;;;;;2.88;0.50;;;18.40;62.00;;;;;;5055694;28;20033;-78
2023/05/17 10:41:20;;;;;;;4.93;0.47;;;18.40;59.80;;;;;;5055633;28;20067;-78
2023/05/17 10:43:47;;;;;;;4.22;0.57;;;18.60;58.90;;;;;;5073205;28;20465;-78
2023/05/17 10:46:20;;;;;;;4.40;0.57;;;18.70;58.90;;;;;;5073495;28;20064;-79
2023/05/17 10:48:53;;;;;;;3.35;0.50;;;18.60;59.20;;;;;;5073622;28;20499;-79
2023/05/17 10:51:30;;;;;;;4.45;0.60;;;18.60;58.10;;;;;;5073254;28;20468;-79
2023/05/17 10:54:01;;;;;;;4.80;0.80;;;18.60;59.50;;;;;;5073591;28;20421;-78
2023/05/17 10:56:30;;;;;;;5.57;0.70;;;18.40;56.70;;;;;;5072802;28;20081;-78
2023/05/17 10:59:21;;;;;;;6.32;1.02;;;18.30;59.70;;;;;;5078988;28;20085;-78
2023/05/17 11:02:07;;;;;;;4.38;0.55;;;18.10;58.50;;;;;;5093664;28;20495;-78
2023/05/17 11:04:37;;;;;;;5.90;0.95;;;18.30;59.40;;;;;;5094136;28;20039;-79
2023/05/17 11:07:15;;;;;;;5.80;0.50;;;18.50;58.40;;;;;;5093243;28;20373;-79
2023/05/17 11:09:42;;;;;;;6.53;0.70;;;18.60;57.20;;;;;;5093539;28;20020;-79
2023/05/17 11:12:13;;;;;;;6.00;0.98;;;18.70;57.40;;;;;;5093407;28;20035;-79
2023/05/17 11:14:44;;;;;;;4.38;0.50;;;18.60;57.90;;;;;;5093131;28;20131;-78
2023/05/17 11:17:17;;;;;;;7.88;0.90;;;18.70;57.10;;;;;;5093321;28;20024;-78
2023/05/17 11:20:00;;;;;;;7.97;1.15;;;18.80;58.20;;;;;;5076289;28;20034;-79
2023/05/17 11:22:27;;;;;;;3.65;0.63;;;19.00;58.20;;;;;;5093481;28;20452;-79
2023/05/17 11:24:55;;;;;;;7.13;0.93;;;19.20;57.60;;;;;;5093145;28;20115;-79
2023/05/17 11:27:26;;;;;;;7.32;0.75;;;19.00;55.60;;;;;;5092773;28;20032;-78
2023/05/17 11:29:55;;;;;;;5.15;1.13;;;18.70;57.60;;;;;;5093755;28;20403;-78
2023/05/17 11:32:31;;;;;;;6.85;1.10;;;18.90;57.10;;;;;;5075442;28;20024;-79
2023/05/17 11:35:00;;;;;;;7.30;1.00;;;19.10;57.80;;;;;;5075152;28;20032;-79
2023/05/17 11:37:27;;;;;;;6.78;0.60;;;19.40;56.90;;;;;;5093024;28;20116;-78
2023/05/17 11:40:05;;;;;;;6.53;0.82;;;19.50;55.20;;;;;;5093338;28;20034;-78
2023/05/17 11:42:31;;;;;;;6.45;0.60;;;19.50;53.70;;;;;;5075287;28;20024;-79
2023/05/17 11:45:00;;;;;;;7.40;0.95;;;19.50;54.60;;;;;;5093203;28;20032;-78
2023/05/17 11:47:26;;;;;;;4.30;0.75;;;19.60;53.60;;;;;;5074752;28;20456;-79
2023/05/17 11:49:53;;;;;;;7.90;1.40;;;19.60;52.80;;;;;;5092626;28;20032;-77
2023/05/17 11:52:19;;;;;;;5.32;1.30;;;19.60;55.30;;;;;;5093106;28;20024;-78
2023/05/17 11:54:46;;;;;;;8.75;1.65;;;19.80;55.80;;;;;;5093000;28;20032;-78
2023/05/17 11:57:15;;;;;;;5.90;1.00;;;19.90;55.50;;;;;;5091382;28;20040;-78
2023/05/17 11:59:42;;;;;;;6.22;0.93;;;19.90;53.90;;;;;;5074924;28;20048;-78
2023/05/17 12:02:08;;;;;;;8.55;1.75;;;20.00;54.50;;;;;;5075082;28;20107;-78
2023/05/17 12:04:38;;;;;;;7.90;1.15;;;19.80;53.00;;;;;;5093076;28;20051;-79
2023/05/17 12:07:04;;;;;;;7.80;1.13;;;19.50;54.80;;;;;;5092846;28;20063;-78
2023/05/17 12:09:30;;;;;;;8.35;1.10;;;19.50;53.80;;;;;;5092771;28;20063;-78
2023/05/17 12:11:56;;;;;;;6.75;1.17;;;19.50;54.20;;;;;;5074876;28;20032;-79
2023/05/17 12:14:23;;;;;;;6.30;0.90;;;19.20;54.70;;;;;;5074965;28;20032;-78
2023/05/17 12:16:57;;;;;;;9.18;1.20;;;19.20;54.80;;;;;;5093044;28;20031;-78
2023/05/17 12:19:24;;;;;;;9.38;1.17;;;19.10;53.30;;;;;;5092900;28;20056;-78
2023/05/17 12:21:50;;;;;;;5.35;1.27;;;18.90;54.10;;;;;;5092791;28;20055;-77
2023/05/17 12:24:16;;;;;;;6.13;0.80;;;18.90;56.60;;;;;;5074654;28;20032;-78
2023/05/17 12:26:46;;;;;;;8.45;1.08;;;19.10;55.40;;;;;;5095544;28;20035;-78
2023/05/17 12:29:17;;;;;;;10.77;1.25;;;19.40;53.80;;;;;;5096139;28;20028;-78
2023/05/17 12:31:49;;;;;;;6.07;1.13;;;19.50;53.40;;;;;;5096497;28;20036;-78
2023/05/17 12:34:16;;;;;;;10.25;1.90;;;19.50;52.90;;;;;;5096141;28;20056;-79
2023/05/17 12:36:42;;;;;;;5.40;0.90;;;19.40;53.40;;;;;;5096257;28;20032;-77
2023/05/17 12:39:11;;;;;;;9.35;1.45;;;19.10;54.30;;;;;;5077885;28;20121;-78
2023/05/17 12:41:37;;;;;;;9.07;1.38;;;18.90;53.10;;;;;;5096371;28;20056;-79